createdAt,value
2018-08-12T00:00:11.169Z,3.218688
2018-08-12T00:00:23.706Z,3.218688
2018-08-12T00:00:36.247Z,3.218688
2018-08-12T00:00:48.780Z,3.218688
2018-08-12T00:01:01.349Z,3.218688
2018-08-12T00:01:13.874Z,3.218688
2018-08-12T00:01:26.398Z,3.218688
2018-08-12T00:01:38.910Z,4.828032
2018-08-12T00:01:51.428Z,4.828032
2018-08-12T00:02:03.951Z,4.828032
2018-08-12T00:02:16.465Z,8.04672
2018-08-12T00:02:29.201Z,8.04672
2018-08-12T00:02:41.730Z,8.04672
2018-08-12T00:02:54.243Z,8.04672
2018-08-12T00:03:07.002Z,3.218688
2018-08-12T00:03:19.528Z,3.218688
2018-08-12T00:03:32.069Z,3.218688
2018-08-12T00:03:44.588Z,3.218688
2018-08-12T00:03:57.092Z,3.218688
2018-08-12T00:04:09.622Z,6.437376
2018-08-12T00:04:22.306Z,6.437376
2018-08-12T00:04:34.840Z,6.437376
2018-08-12T00:04:47.374Z,6.437376
2018-08-12T00:04:59.891Z,6.437376
2018-08-12T00:05:12.412Z,3.218688
2018-08-12T00:05:24.972Z,3.218688
2018-08-12T00:05:37.538Z,3.218688
2018-08-12T00:05:50.052Z,3.218688
2018-08-12T00:06:02.557Z,3.218688
2018-08-12T00:06:15.072Z,1.609344
2018-08-12T00:06:27.593Z,3.218688
2018-08-12T00:06:40.122Z,3.218688
2018-08-12T00:06:52.653Z,8.04672
2018-08-12T00:07:05.179Z,3.218688
2018-08-12T00:07:17.704Z,3.218688
2018-08-12T00:07:30.225Z,9.656064
2018-08-12T00:07:42.742Z,9.656064
2018-08-12T00:07:55.235Z,11.265408
2018-08-12T00:08:07.767Z,6.437376
2018-08-12T00:08:20.584Z,11.265408
2018-08-12T00:08:33.077Z,11.265408
2018-08-12T00:08:45.603Z,11.265408
2018-08-12T00:08:58.123Z,11.265408
2018-08-12T00:09:10.629Z,3.218688
2018-08-12T00:09:23.139Z,6.437376
2018-08-12T00:09:35.656Z,6.437376
2018-08-12T00:09:48.182Z,6.437376
2018-08-12T00:10:00.719Z,6.437376
2018-08-12T00:10:13.252Z,6.437376
2018-08-12T00:10:25.782Z,6.437376
2018-08-12T00:10:38.326Z,6.437376
2018-08-12T00:10:50.844Z,6.437376
2018-08-12T00:11:03.353Z,3.218688
2018-08-12T00:11:15.871Z,3.218688
2018-08-12T00:11:28.397Z,4.828032
2018-08-12T00:11:40.921Z,4.828032
2018-08-12T00:11:53.454Z,4.828032
2018-08-12T00:12:05.982Z,1.609344
2018-08-12T00:12:18.488Z,9.656064
2018-08-12T00:12:30.996Z,9.656064
2018-08-12T00:12:43.526Z,9.656064
2018-08-12T00:12:56.080Z,9.656064
2018-08-12T00:13:08.611Z,8.04672
2018-08-12T00:13:21.173Z,8.04672
2018-08-12T00:13:33.698Z,8.04672
2018-08-12T00:13:46.235Z,8.04672
2018-08-12T00:13:58.805Z,8.04672
2018-08-12T00:14:11.361Z,3.218688
2018-08-12T00:14:23.902Z,3.218688
2018-08-12T00:14:36.415Z,3.218688
2018-08-12T00:14:48.939Z,3.218688
2018-08-12T00:15:01.463Z,3.218688
2018-08-12T00:15:14.570Z,1.609344
2018-08-12T00:15:27.860Z,1.609344
2018-08-12T00:15:40.419Z,1.609344
2018-08-12T00:15:52.958Z,1.609344
2018-08-12T00:16:05.507Z,0
2018-08-12T00:16:18.039Z,1.609344
2018-08-12T00:16:30.551Z,1.609344
2018-08-12T00:16:43.079Z,3.218688
2018-08-12T00:16:55.597Z,3.218688
2018-08-12T00:17:08.124Z,1.609344
2018-08-12T00:17:20.650Z,4.828032
2018-08-12T00:17:33.170Z,4.828032
2018-08-12T00:17:45.693Z,6.437376
2018-08-12T00:17:58.257Z,6.437376
2018-08-12T00:18:10.785Z,3.218688
2018-08-12T00:18:23.337Z,3.218688
2018-08-12T00:18:35.845Z,3.218688
2018-08-12T00:18:48.371Z,3.218688
2018-08-12T00:19:00.917Z,3.218688
2018-08-12T00:19:13.434Z,1.609344
2018-08-12T00:19:25.957Z,1.609344
2018-08-12T00:19:38.483Z,3.218688
2018-08-12T00:19:51.135Z,4.828032
2018-08-12T00:20:03.701Z,6.437376
2018-08-12T00:20:16.224Z,6.437376
2018-08-12T00:20:28.727Z,6.437376
2018-08-12T00:20:41.272Z,8.04672
2018-08-12T00:20:53.788Z,8.04672
2018-08-12T00:21:06.355Z,4.828032
2018-08-12T00:21:18.897Z,6.437376
2018-08-12T00:21:31.413Z,6.437376
2018-08-12T00:21:43.925Z,6.437376
2018-08-12T00:21:56.442Z,6.437376
2018-08-12T00:22:09.065Z,1.609344
2018-08-12T00:22:21.605Z,1.609344
2018-08-12T00:22:34.131Z,1.609344
2018-08-12T00:22:46.631Z,1.609344
2018-08-12T00:22:59.158Z,3.218688
2018-08-12T00:23:11.667Z,3.218688
2018-08-12T00:23:24.185Z,3.218688
2018-08-12T00:23:36.882Z,3.218688
2018-08-12T00:23:49.410Z,3.218688
2018-08-12T00:24:01.932Z,3.218688
2018-08-12T00:24:14.451Z,1.609344
2018-08-12T00:24:26.962Z,1.609344
2018-08-12T00:24:39.470Z,6.437376
2018-08-12T00:24:51.987Z,6.437376
2018-08-12T00:25:04.496Z,1.609344
2018-08-12T00:25:17.335Z,1.609344
2018-08-12T00:25:29.887Z,1.609344
2018-08-12T00:25:42.388Z,1.609344
2018-08-12T00:25:54.912Z,3.218688
2018-08-12T00:26:07.616Z,4.828032
2018-08-12T00:26:20.150Z,6.437376
2018-08-12T00:26:32.683Z,6.437376
2018-08-12T00:26:45.212Z,6.437376
2018-08-12T00:26:57.714Z,6.437376
2018-08-12T00:27:10.241Z,1.609344
2018-08-12T00:27:22.757Z,1.609344
2018-08-12T00:27:35.270Z,3.218688
2018-08-12T00:27:47.796Z,3.218688
2018-08-12T00:28:00.298Z,3.218688
2018-08-12T00:28:12.865Z,1.609344
2018-08-12T00:28:25.398Z,1.609344
2018-08-12T00:28:37.917Z,1.609344
2018-08-12T00:28:50.462Z,3.218688
2018-08-12T00:29:03.002Z,3.218688
2018-08-12T00:29:15.532Z,3.218688
2018-08-12T00:29:28.212Z,3.218688
2018-08-12T00:29:40.721Z,3.218688
2018-08-12T00:29:53.351Z,3.218688
2018-08-12T00:30:05.917Z,1.609344
2018-08-12T00:30:18.580Z,1.609344
2018-08-12T00:30:31.149Z,1.609344
2018-08-12T00:30:43.676Z,1.609344
2018-08-12T00:30:56.195Z,3.218688
2018-08-12T00:31:08.780Z,1.609344
2018-08-12T00:31:21.295Z,3.218688
2018-08-12T00:31:33.804Z,3.218688
2018-08-12T00:31:46.333Z,3.218688
2018-08-12T00:31:58.878Z,3.218688
2018-08-12T00:32:11.413Z,1.609344
2018-08-12T00:32:23.941Z,1.609344
2018-08-12T00:32:36.576Z,1.609344
2018-08-12T00:32:49.110Z,1.609344
2018-08-12T00:33:01.643Z,3.218688
2018-08-12T00:33:14.170Z,4.828032
2018-08-12T00:33:26.704Z,4.828032
2018-08-12T00:33:39.217Z,4.828032
2018-08-12T00:33:51.731Z,4.828032
2018-08-12T00:34:04.258Z,1.609344
2018-08-12T00:34:16.774Z,3.218688
2018-08-12T00:34:29.316Z,3.218688
2018-08-12T00:34:41.830Z,3.218688
2018-08-12T00:34:54.359Z,3.218688
2018-08-12T00:35:06.896Z,1.609344
2018-08-12T00:35:19.437Z,1.609344
2018-08-12T00:35:31.950Z,1.609344
2018-08-12T00:35:44.462Z,3.218688
2018-08-12T00:35:56.998Z,3.218688
2018-08-12T00:36:09.527Z,3.218688
2018-08-12T00:36:22.047Z,3.218688
2018-08-12T00:36:34.628Z,6.437376
2018-08-12T00:36:47.170Z,6.437376
2018-08-12T00:36:59.687Z,6.437376
2018-08-12T00:37:12.204Z,3.218688
2018-08-12T00:37:24.870Z,3.218688
2018-08-12T00:37:37.416Z,3.218688
2018-08-12T00:37:49.972Z,3.218688
2018-08-12T00:38:02.482Z,3.218688
2018-08-12T00:38:15.014Z,3.218688
2018-08-12T00:38:27.527Z,3.218688
2018-08-12T00:38:40.035Z,3.218688
2018-08-12T00:38:52.642Z,3.218688
2018-08-12T00:39:05.201Z,1.609344
2018-08-12T00:39:18.038Z,6.437376
2018-08-12T00:39:30.597Z,6.437376
2018-08-12T00:39:43.115Z,6.437376
2018-08-12T00:39:55.630Z,6.437376
2018-08-12T00:40:08.157Z,0
2018-08-12T00:40:20.716Z,1.609344
2018-08-12T00:40:33.223Z,1.609344
2018-08-12T00:40:45.764Z,1.609344
2018-08-12T00:40:58.273Z,4.828032
2018-08-12T00:41:10.802Z,4.828032
2018-08-12T00:41:23.324Z,8.04672
2018-08-12T00:41:35.841Z,8.04672
2018-08-12T00:41:48.364Z,8.04672
2018-08-12T00:42:00.874Z,9.656064
2018-08-12T00:42:13.404Z,8.04672
2018-08-12T00:42:25.941Z,8.04672
2018-08-12T00:42:38.467Z,8.04672
2018-08-12T00:42:50.989Z,8.04672
2018-08-12T00:43:03.607Z,1.609344
2018-08-12T00:43:16.123Z,1.609344
2018-08-12T00:43:28.643Z,1.609344
2018-08-12T00:43:41.163Z,3.218688
2018-08-12T00:43:53.662Z,3.218688
2018-08-12T00:44:06.180Z,1.609344
2018-08-12T00:44:18.742Z,1.609344
2018-08-12T00:44:31.258Z,1.609344
2018-08-12T00:44:43.783Z,1.609344
2018-08-12T00:44:56.305Z,1.609344
2018-08-12T00:45:08.823Z,1.609344
2018-08-12T00:45:21.416Z,1.609344
2018-08-12T00:45:33.976Z,3.218688
2018-08-12T00:45:46.489Z,6.437376
2018-08-12T00:45:59.012Z,8.04672
2018-08-12T00:46:11.521Z,4.828032
2018-08-12T00:46:24.032Z,4.828032
2018-08-12T00:46:36.549Z,4.828032
2018-08-12T00:46:49.062Z,4.828032
2018-08-12T00:47:01.589Z,4.828032
2018-08-12T00:47:14.111Z,1.609344
2018-08-12T00:47:26.625Z,1.609344
2018-08-12T00:47:39.139Z,1.609344
2018-08-12T00:47:51.659Z,3.218688
2018-08-12T00:48:04.183Z,4.828032
2018-08-12T00:48:16.697Z,8.04672
2018-08-12T00:48:29.211Z,8.04672
2018-08-12T00:48:41.727Z,8.04672
2018-08-12T00:48:54.242Z,8.04672
2018-08-12T00:49:06.891Z,1.609344
2018-08-12T00:49:19.402Z,1.609344
2018-08-12T00:49:31.922Z,3.218688
2018-08-12T00:49:44.448Z,6.437376
2018-08-12T00:49:56.961Z,6.437376
2018-08-12T00:50:09.484Z,1.609344
2018-08-12T00:50:21.998Z,1.609344
2018-08-12T00:50:34.523Z,3.218688
2018-08-12T00:50:47.059Z,3.218688
2018-08-12T00:50:59.607Z,4.828032
2018-08-12T00:51:12.120Z,4.828032
2018-08-12T00:51:24.644Z,4.828032
2018-08-12T00:51:37.176Z,4.828032
2018-08-12T00:51:49.792Z,4.828032
2018-08-12T00:52:02.331Z,4.828032
2018-08-12T00:52:14.853Z,3.218688
2018-08-12T00:52:27.422Z,3.218688
2018-08-12T00:52:40.009Z,3.218688
2018-08-12T00:52:52.552Z,3.218688
2018-08-12T00:53:05.052Z,0
2018-08-12T00:53:17.567Z,3.218688
2018-08-12T00:53:30.104Z,3.218688
2018-08-12T00:53:42.624Z,3.218688
2018-08-12T00:53:55.168Z,3.218688
2018-08-12T00:54:07.702Z,3.218688
2018-08-12T00:54:20.216Z,3.218688
2018-08-12T00:54:32.742Z,3.218688
2018-08-12T00:54:45.255Z,3.218688
2018-08-12T00:54:57.783Z,9.656064
2018-08-12T00:55:10.298Z,6.437376
2018-08-12T00:55:22.804Z,8.04672
2018-08-12T00:55:35.326Z,8.04672
2018-08-12T00:55:47.823Z,8.04672
2018-08-12T00:56:00.381Z,8.04672
2018-08-12T00:56:12.884Z,6.437376
2018-08-12T00:56:25.404Z,6.437376
2018-08-12T00:56:37.940Z,6.437376
2018-08-12T00:56:50.496Z,6.437376
2018-08-12T00:57:03.013Z,6.437376
2018-08-12T00:57:15.582Z,3.218688
2018-08-12T00:57:28.279Z,3.218688
2018-08-12T00:57:40.788Z,3.218688
2018-08-12T00:57:53.474Z,3.218688
2018-08-12T00:58:05.994Z,6.437376
2018-08-12T00:58:18.513Z,6.437376
2018-08-12T00:58:31.053Z,6.437376
2018-08-12T00:58:43.607Z,6.437376
2018-08-12T00:58:56.132Z,6.437376
2018-08-12T00:59:08.659Z,1.609344
2018-08-12T00:59:21.164Z,1.609344
2018-08-12T00:59:33.711Z,3.218688
2018-08-12T00:59:46.218Z,8.04672
2018-08-12T00:59:58.731Z,8.04672
2018-08-12T01:00:11.296Z,4.828032
2018-08-12T01:00:23.837Z,8.04672
2018-08-12T01:00:36.347Z,8.04672
2018-08-12T01:00:48.861Z,8.04672
2018-08-12T01:01:01.393Z,8.04672
2018-08-12T01:01:13.909Z,6.437376
2018-08-12T01:01:26.419Z,6.437376
2018-08-12T01:01:38.933Z,6.437376
2018-08-12T01:01:51.540Z,6.437376
2018-08-12T01:02:04.047Z,0
2018-08-12T01:02:16.569Z,1.609344
2018-08-12T01:02:29.281Z,1.609344
2018-08-12T01:02:41.804Z,1.609344
2018-08-12T01:02:54.326Z,1.609344
2018-08-12T01:03:06.893Z,0
2018-08-12T01:03:19.411Z,1.609344
2018-08-12T01:03:31.922Z,4.828032
2018-08-12T01:03:44.587Z,4.828032
2018-08-12T01:03:57.107Z,4.828032
2018-08-12T01:04:09.633Z,4.828032
2018-08-12T01:04:22.311Z,4.828032
2018-08-12T01:04:34.836Z,6.437376
2018-08-12T01:04:47.342Z,8.04672
2018-08-12T01:04:59.928Z,8.04672
2018-08-12T01:05:12.446Z,1.609344
2018-08-12T01:05:24.946Z,3.218688
2018-08-12T01:05:37.472Z,3.218688
2018-08-12T01:05:50.025Z,3.218688
2018-08-12T01:06:02.573Z,3.218688
2018-08-12T01:06:15.260Z,3.218688
2018-08-12T01:06:27.767Z,3.218688
2018-08-12T01:06:40.340Z,3.218688
2018-08-12T01:06:52.852Z,3.218688
2018-08-12T01:07:05.392Z,6.437376
2018-08-12T01:07:17.906Z,6.437376
2018-08-12T01:07:30.424Z,6.437376
2018-08-12T01:07:42.958Z,6.437376
2018-08-12T01:07:55.526Z,6.437376
2018-08-12T01:08:08.066Z,0
2018-08-12T01:08:20.589Z,0
2018-08-12T01:08:33.107Z,3.218688
2018-08-12T01:08:45.612Z,3.218688
2018-08-12T01:08:58.142Z,3.218688
2018-08-12T01:09:10.659Z,0
2018-08-12T01:09:23.187Z,1.609344
2018-08-12T01:09:35.733Z,6.437376
2018-08-12T01:09:48.268Z,6.437376
2018-08-12T01:10:00.770Z,6.437376
2018-08-12T01:10:13.292Z,1.609344
2018-08-12T01:10:25.830Z,3.218688
2018-08-12T01:10:38.354Z,3.218688
2018-08-12T01:10:50.877Z,3.218688
2018-08-12T01:11:03.394Z,3.218688
2018-08-12T01:11:15.928Z,3.218688
2018-08-12T01:11:28.452Z,3.218688
2018-08-12T01:11:40.982Z,3.218688
2018-08-12T01:11:53.508Z,3.218688
2018-08-12T01:12:06.072Z,1.609344
2018-08-12T01:12:18.599Z,1.609344
2018-08-12T01:12:31.125Z,1.609344
2018-08-12T01:12:43.830Z,1.609344
2018-08-12T01:12:56.327Z,1.609344
2018-08-12T01:13:08.830Z,3.218688
2018-08-12T01:13:21.343Z,3.218688
2018-08-12T01:13:33.892Z,3.218688
2018-08-12T01:13:46.422Z,3.218688
2018-08-12T01:13:58.980Z,3.218688
2018-08-12T01:14:11.528Z,1.609344
2018-08-12T01:14:24.044Z,1.609344
2018-08-12T01:14:36.560Z,1.609344
2018-08-12T01:14:49.089Z,1.609344
2018-08-12T01:15:01.629Z,1.609344
2018-08-12T01:15:14.203Z,1.609344
2018-08-12T01:15:26.737Z,1.609344
2018-08-12T01:15:39.257Z,1.609344
2018-08-12T01:15:51.786Z,1.609344
2018-08-12T01:16:04.334Z,0
2018-08-12T01:16:16.845Z,1.609344
2018-08-12T01:16:29.381Z,1.609344
2018-08-12T01:16:41.911Z,1.609344
2018-08-12T01:16:54.421Z,1.609344
2018-08-12T01:17:06.987Z,0
2018-08-12T01:17:19.506Z,1.609344
2018-08-12T01:17:32.020Z,3.218688
2018-08-12T01:17:44.545Z,3.218688
2018-08-12T01:17:57.060Z,3.218688
2018-08-12T01:18:09.579Z,1.609344
2018-08-12T01:18:22.101Z,1.609344
2018-08-12T01:18:34.618Z,1.609344
2018-08-12T01:18:47.160Z,1.609344
2018-08-12T01:18:59.729Z,1.609344
2018-08-12T01:19:12.253Z,0
2018-08-12T01:19:24.768Z,1.609344
2018-08-12T01:19:37.279Z,1.609344
2018-08-12T01:19:49.808Z,1.609344
2018-08-12T01:20:02.374Z,1.609344
2018-08-12T01:20:14.884Z,3.218688
2018-08-12T01:20:27.440Z,3.218688
2018-08-12T01:20:39.954Z,3.218688
2018-08-12T01:20:52.489Z,3.218688
2018-08-12T01:21:05.060Z,0
2018-08-12T01:21:17.602Z,1.609344
2018-08-12T01:21:30.138Z,1.609344
2018-08-12T01:21:42.659Z,1.609344
2018-08-12T01:21:55.183Z,1.609344
2018-08-12T01:22:07.830Z,0
2018-08-12T01:22:20.351Z,0
2018-08-12T01:22:32.887Z,1.609344
2018-08-12T01:22:45.403Z,1.609344
2018-08-12T01:22:57.934Z,3.218688
2018-08-12T01:23:10.462Z,1.609344
2018-08-12T01:23:23.056Z,1.609344
2018-08-12T01:23:35.793Z,1.609344
2018-08-12T01:23:48.332Z,1.609344
2018-08-12T01:24:00.901Z,3.218688
2018-08-12T01:24:13.492Z,3.218688
2018-08-12T01:24:26.043Z,3.218688
2018-08-12T01:24:38.561Z,6.437376
2018-08-12T01:24:51.091Z,9.656064
2018-08-12T01:25:03.620Z,8.04672
2018-08-12T01:25:16.178Z,8.04672
2018-08-12T01:25:28.693Z,8.04672
2018-08-12T01:25:41.205Z,8.04672
2018-08-12T01:25:54.021Z,8.04672
2018-08-12T01:26:06.553Z,3.218688
2018-08-12T01:26:19.057Z,3.218688
2018-08-12T01:26:31.559Z,3.218688
2018-08-12T01:26:44.070Z,3.218688
2018-08-12T01:26:56.577Z,3.218688
2018-08-12T01:27:09.092Z,1.609344
2018-08-12T01:27:21.627Z,3.218688
2018-08-12T01:27:34.140Z,3.218688
2018-08-12T01:27:46.667Z,3.218688
2018-08-12T01:27:59.185Z,3.218688
2018-08-12T01:28:11.698Z,1.609344
2018-08-12T01:28:24.249Z,1.609344
2018-08-12T01:28:36.793Z,3.218688
2018-08-12T01:28:49.316Z,3.218688
2018-08-12T01:29:01.833Z,3.218688
2018-08-12T01:29:14.368Z,3.218688
2018-08-12T01:29:26.887Z,3.218688
2018-08-12T01:29:39.422Z,3.218688
2018-08-12T01:29:51.944Z,3.218688
2018-08-12T01:30:04.469Z,1.609344
2018-08-12T01:30:17.044Z,1.609344
2018-08-12T01:30:29.572Z,1.609344
2018-08-12T01:30:42.136Z,1.609344
2018-08-12T01:30:54.641Z,1.609344
2018-08-12T01:31:07.405Z,0
2018-08-12T01:31:19.928Z,0
2018-08-12T01:31:32.450Z,1.609344
2018-08-12T01:31:44.954Z,1.609344
2018-08-12T01:31:57.470Z,1.609344
2018-08-12T01:32:10.010Z,0
2018-08-12T01:32:22.512Z,0
2018-08-12T01:32:35.201Z,0
2018-08-12T01:32:47.718Z,1.609344
2018-08-12T01:33:00.235Z,1.609344
2018-08-12T01:33:12.780Z,1.609344
2018-08-12T01:33:25.299Z,1.609344
2018-08-12T01:33:37.810Z,1.609344
2018-08-12T01:33:50.318Z,1.609344
2018-08-12T01:34:02.831Z,1.609344
2018-08-12T01:34:15.363Z,0
2018-08-12T01:34:27.908Z,0
2018-08-12T01:34:40.414Z,0
2018-08-12T01:34:52.977Z,0
2018-08-12T01:35:05.477Z,0
2018-08-12T01:35:18.073Z,1.609344
2018-08-12T01:35:30.610Z,1.609344
2018-08-12T01:35:43.121Z,1.609344
2018-08-12T01:35:56.402Z,1.609344
2018-08-12T01:36:09.969Z,3.218688
2018-08-12T01:36:22.502Z,3.218688
2018-08-12T01:36:35.045Z,3.218688
2018-08-12T01:36:47.559Z,3.218688
2018-08-12T01:37:00.090Z,3.218688
2018-08-12T01:37:12.604Z,1.609344
2018-08-12T01:37:25.215Z,1.609344
2018-08-12T01:37:37.753Z,1.609344
2018-08-12T01:37:50.306Z,1.609344
2018-08-12T01:38:02.849Z,1.609344
2018-08-12T01:38:15.357Z,0
2018-08-12T01:38:27.870Z,0
2018-08-12T01:38:40.380Z,0
2018-08-12T01:38:52.917Z,0
2018-08-12T01:39:05.446Z,3.218688
2018-08-12T01:39:18.114Z,3.218688
2018-08-12T01:39:30.646Z,3.218688
2018-08-12T01:39:43.173Z,3.218688
2018-08-12T01:39:55.692Z,3.218688
2018-08-12T01:40:08.213Z,0
2018-08-12T01:40:20.771Z,1.609344
2018-08-12T01:40:33.293Z,1.609344
2018-08-12T01:40:45.804Z,1.609344
2018-08-12T01:40:58.321Z,1.609344
2018-08-12T01:41:10.843Z,0
2018-08-12T01:41:23.388Z,0
2018-08-12T01:41:35.931Z,0
2018-08-12T01:41:48.445Z,0
2018-08-12T01:42:00.951Z,0
2018-08-12T01:42:13.467Z,0
2018-08-12T01:42:25.985Z,0
2018-08-12T01:42:38.508Z,0
2018-08-12T01:42:51.050Z,1.609344
2018-08-12T01:43:03.564Z,0
2018-08-12T01:43:16.087Z,0
2018-08-12T01:43:28.593Z,1.609344
2018-08-12T01:43:41.166Z,1.609344
2018-08-12T01:43:53.682Z,1.609344
2018-08-12T01:44:06.206Z,1.609344
2018-08-12T01:44:18.728Z,1.609344
2018-08-12T01:44:31.260Z,1.609344
2018-08-12T01:44:43.779Z,1.609344
2018-08-12T01:44:56.295Z,1.609344
2018-08-12T01:45:08.820Z,0
2018-08-12T01:45:21.343Z,0
2018-08-12T01:45:33.920Z,0
2018-08-12T01:45:46.430Z,1.609344
2018-08-12T01:45:58.987Z,1.609344
2018-08-12T01:46:11.507Z,1.609344
2018-08-12T01:46:24.015Z,1.609344
2018-08-12T01:46:36.526Z,1.609344
2018-08-12T01:46:49.052Z,1.609344
2018-08-12T01:47:01.577Z,1.609344
2018-08-12T01:47:14.093Z,1.609344
2018-08-12T01:47:26.621Z,3.218688
2018-08-12T01:47:39.138Z,3.218688
2018-08-12T01:47:51.714Z,3.218688
2018-08-12T01:48:04.233Z,0
2018-08-12T01:48:16.761Z,1.609344
2018-08-12T01:48:29.290Z,1.609344
2018-08-12T01:48:41.809Z,1.609344
2018-08-12T01:48:54.316Z,1.609344
2018-08-12T01:49:07.024Z,1.609344
2018-08-12T01:49:19.551Z,1.609344
2018-08-12T01:49:32.223Z,1.609344
2018-08-12T01:49:44.745Z,1.609344
2018-08-12T01:49:57.254Z,3.218688
2018-08-12T01:50:09.787Z,1.609344
2018-08-12T01:50:22.350Z,1.609344
2018-08-12T01:50:34.848Z,1.609344
2018-08-12T01:50:47.425Z,1.609344
2018-08-12T01:50:59.939Z,1.609344
2018-08-12T01:51:12.451Z,0
2018-08-12T01:51:24.998Z,1.609344
2018-08-12T01:51:37.504Z,1.609344
2018-08-12T01:51:50.105Z,1.609344
2018-08-12T01:52:02.650Z,1.609344
2018-08-12T01:52:15.173Z,1.609344
2018-08-12T01:52:27.686Z,1.609344
2018-08-12T01:52:40.200Z,1.609344
2018-08-12T01:52:52.718Z,1.609344
2018-08-12T01:53:05.264Z,0
2018-08-12T01:53:17.853Z,1.609344
2018-08-12T01:53:30.406Z,1.609344
2018-08-12T01:53:42.942Z,1.609344
2018-08-12T01:53:55.501Z,1.609344
2018-08-12T01:54:08.026Z,0
2018-08-12T01:54:20.541Z,0
2018-08-12T01:54:33.073Z,1.609344
2018-08-12T01:54:45.570Z,1.609344
2018-08-12T01:54:58.096Z,1.609344
2018-08-12T01:55:10.739Z,1.609344
2018-08-12T01:55:23.266Z,1.609344
2018-08-12T01:55:35.791Z,3.218688
2018-08-12T01:55:48.322Z,3.218688
2018-08-12T01:56:00.852Z,3.218688
2018-08-12T01:56:13.367Z,1.609344
2018-08-12T01:56:25.890Z,1.609344
2018-08-12T01:56:38.407Z,1.609344
2018-08-12T01:56:50.924Z,1.609344
2018-08-12T01:57:03.430Z,1.609344
2018-08-12T01:57:15.932Z,1.609344
2018-08-12T01:57:28.476Z,1.609344
2018-08-12T01:57:41.003Z,1.609344
2018-08-12T01:57:53.530Z,1.609344
2018-08-12T01:58:06.053Z,1.609344
2018-08-12T01:58:18.583Z,1.609344
2018-08-12T01:58:31.165Z,3.218688
2018-08-12T01:58:43.704Z,6.437376
2018-08-12T01:58:56.228Z,6.437376
2018-08-12T01:59:08.761Z,1.609344
2018-08-12T01:59:21.294Z,1.609344
2018-08-12T01:59:33.823Z,1.609344
2018-08-12T01:59:46.332Z,3.218688
2018-08-12T01:59:58.874Z,4.828032
2018-08-12T02:00:11.487Z,3.218688
2018-08-12T02:00:24.054Z,3.218688
2018-08-12T02:00:36.576Z,3.218688
2018-08-12T02:00:49.153Z,3.218688
2018-08-12T02:01:01.753Z,3.218688
2018-08-12T02:01:14.288Z,1.609344
2018-08-12T02:01:26.834Z,1.609344
2018-08-12T02:01:39.420Z,1.609344
2018-08-12T02:01:51.941Z,1.609344
2018-08-12T02:02:04.441Z,0
2018-08-12T02:02:16.955Z,1.609344
2018-08-12T02:02:29.615Z,1.609344
2018-08-12T02:02:42.157Z,1.609344
2018-08-12T02:02:54.686Z,1.609344
2018-08-12T02:03:07.199Z,1.609344
2018-08-12T02:03:19.744Z,1.609344
2018-08-12T02:03:32.295Z,1.609344
2018-08-12T02:03:44.824Z,1.609344
2018-08-12T02:03:57.346Z,1.609344
2018-08-12T02:04:09.965Z,0
2018-08-12T02:04:22.577Z,0
2018-08-12T02:04:35.092Z,0
2018-08-12T02:04:47.607Z,3.218688
2018-08-12T02:05:00.138Z,3.218688
2018-08-12T02:05:12.675Z,3.218688
2018-08-12T02:05:25.209Z,3.218688
2018-08-12T02:05:37.733Z,3.218688
2018-08-12T02:05:50.253Z,3.218688
2018-08-12T02:06:02.833Z,3.218688
2018-08-12T02:06:15.396Z,1.609344
2018-08-12T02:06:27.912Z,1.609344
2018-08-12T02:06:40.439Z,3.218688
2018-08-12T02:06:53.013Z,3.218688
2018-08-12T02:07:05.538Z,0
2018-08-12T02:07:18.066Z,1.609344
2018-08-12T02:07:30.589Z,1.609344
2018-08-12T02:07:43.128Z,1.609344
2018-08-12T02:07:55.662Z,1.609344
2018-08-12T02:08:08.179Z,1.609344
2018-08-12T02:08:20.706Z,1.609344
2018-08-12T02:08:33.232Z,1.609344
2018-08-12T02:08:45.791Z,1.609344
2018-08-12T02:08:58.332Z,1.609344
2018-08-12T02:09:10.849Z,0
2018-08-12T02:09:23.419Z,1.609344
2018-08-12T02:09:35.990Z,1.609344
2018-08-12T02:09:48.515Z,1.609344
2018-08-12T02:10:01.051Z,1.609344
2018-08-12T02:10:13.578Z,1.609344
2018-08-12T02:10:26.100Z,1.609344
2018-08-12T02:10:38.712Z,1.609344
2018-08-12T02:10:51.281Z,6.437376
2018-08-12T02:11:03.796Z,4.828032
2018-08-12T02:11:16.345Z,4.828032
2018-08-12T02:11:28.865Z,4.828032
2018-08-12T02:11:41.390Z,4.828032
2018-08-12T02:11:53.930Z,4.828032
2018-08-12T02:12:06.437Z,1.609344
2018-08-12T02:12:18.963Z,3.218688
2018-08-12T02:12:31.509Z,3.218688
2018-08-12T02:12:44.146Z,3.218688
2018-08-12T02:12:56.675Z,3.218688
2018-08-12T02:13:09.215Z,0
2018-08-12T02:13:21.740Z,1.609344
2018-08-12T02:13:34.307Z,1.609344
2018-08-12T02:13:46.824Z,1.609344
2018-08-12T02:13:59.343Z,1.609344
2018-08-12T02:14:11.900Z,0
2018-08-12T02:14:24.429Z,1.609344
2018-08-12T02:14:37.008Z,1.609344
2018-08-12T02:14:49.537Z,1.609344
2018-08-12T02:15:02.084Z,1.609344
2018-08-12T02:15:14.635Z,1.609344
2018-08-12T02:15:27.165Z,1.609344
2018-08-12T02:15:39.704Z,1.609344
2018-08-12T02:15:52.227Z,1.609344
2018-08-12T02:16:04.763Z,0
2018-08-12T02:16:17.292Z,4.828032
2018-08-12T02:16:29.821Z,6.437376
2018-08-12T02:16:42.367Z,6.437376
2018-08-12T02:16:54.983Z,6.437376
2018-08-12T02:17:07.542Z,1.609344
2018-08-12T02:17:20.061Z,1.609344
2018-08-12T02:17:32.573Z,1.609344
2018-08-12T02:17:45.090Z,1.609344
2018-08-12T02:17:57.644Z,1.609344
2018-08-12T02:18:10.169Z,1.609344
2018-08-12T02:18:22.680Z,1.609344
2018-08-12T02:18:35.210Z,1.609344
2018-08-12T02:18:47.765Z,1.609344
2018-08-12T02:19:00.281Z,3.218688
2018-08-12T02:19:12.792Z,1.609344
2018-08-12T02:19:25.353Z,1.609344
2018-08-12T02:19:37.900Z,1.609344
2018-08-12T02:19:50.411Z,1.609344
2018-08-12T02:20:02.960Z,1.609344
2018-08-12T02:20:15.515Z,6.437376
2018-08-12T02:20:28.039Z,6.437376
2018-08-12T02:20:40.545Z,6.437376
2018-08-12T02:20:53.054Z,6.437376
2018-08-12T02:21:05.576Z,0
2018-08-12T02:21:18.108Z,1.609344
2018-08-12T02:21:30.629Z,1.609344
2018-08-12T02:21:43.160Z,1.609344
2018-08-12T02:21:55.684Z,1.609344
2018-08-12T02:22:08.342Z,0
2018-08-12T02:22:20.847Z,1.609344
2018-08-12T02:22:33.420Z,1.609344
2018-08-12T02:22:45.953Z,3.218688
2018-08-12T02:22:58.471Z,4.828032
2018-08-12T02:23:10.996Z,3.218688
2018-08-12T02:23:23.530Z,3.218688
2018-08-12T02:23:36.199Z,3.218688
2018-08-12T02:23:48.714Z,3.218688
2018-08-12T02:24:01.240Z,3.218688
2018-08-12T02:24:13.785Z,1.609344
2018-08-12T02:24:26.293Z,1.609344
2018-08-12T02:24:38.811Z,1.609344
2018-08-12T02:24:51.320Z,4.828032
2018-08-12T02:25:03.845Z,3.218688
2018-08-12T02:25:16.380Z,6.437376
2018-08-12T02:25:28.897Z,6.437376
2018-08-12T02:25:41.413Z,6.437376
2018-08-12T02:25:53.924Z,6.437376
2018-08-12T02:26:06.355Z,1.609344
2018-08-12T02:26:23.875Z,3.218688
2018-08-12T02:26:36.383Z,6.437376
2018-08-12T02:26:48.905Z,6.437376
2018-08-12T02:27:01.415Z,6.437376
2018-08-12T02:27:13.948Z,3.218688
2018-08-12T02:27:26.453Z,4.828032
2018-08-12T02:27:38.971Z,6.437376
2018-08-12T02:27:51.541Z,8.04672
2018-08-12T02:28:04.072Z,3.218688
2018-08-12T02:28:16.611Z,6.437376
2018-08-12T02:28:29.136Z,6.437376
2018-08-12T02:28:41.645Z,6.437376
2018-08-12T02:28:54.164Z,6.437376
2018-08-12T02:29:06.678Z,1.609344
2018-08-12T02:29:19.220Z,3.218688
2018-08-12T02:29:31.724Z,3.218688
2018-08-12T02:29:44.257Z,3.218688
2018-08-12T02:29:56.816Z,3.218688
2018-08-12T02:30:09.394Z,3.218688